Atlanta, Kansas
Current Conditions -  °F | °C
As of 7:35 AM on Friday 24 Oct 2014 (Local Time) from KEQA Reporting Station
Clear Clear  
Wind Chill: 59°   Ceiling: Unl
Heat Index: 59°   Visibility: 7mi
Dew Point: 55°   Wind: 9mph
Humidity: 88%   Direction: 190°S
Pressure: 30.05"   Gusts: NA
Location:  37.44°N, 96.76°W
Report Text: KEQA 241235Z AUTO 19008KT 7SM CLR 15/13 A3005 RMK AO2
Loading
Personal Weather Stations






























Interactive Weather Map
Tropical Storm Tracking
New forecast layout! Learn more

10-Day Weather Forecast

Advertisements
Track Severe Weather on mobile